Time;durP1;ratioP1;P1;durP2;ratioP2;P2;SDS_P1;SDS_P2;PMS_P1;PMS_P2;Temp;Humidity;BMP_temperature;BMP_pressure;BME280_temperature;BME280_humidity;BME280_pressure;Samples;Min_cycle;Max_cycle;Signal;HPM_P1;HPM_P2
2023/05/10 00:00:09;;;;;;;2.15;1.50;;;;;;;11.37;100.00;100701.59;5053008;28;20579;-77
2023/05/10 00:02:36;;;;;;;2.45;1.48;;;;;;;11.41;100.00;100708.59;5052520;28;20196;-76
2023/05/10 00:05:05;;;;;;;2.00;1.55;;;;;;;11.41;100.00;100706.00;5052247;28;20570;-76
2023/05/10 00:07:32;;;;;;;1.50;1.40;;;;;;;11.14;100.00;100671.66;5052706;28;20187;-77
2023/05/10 00:09:59;;;;;;;1.75;1.50;;;;;;;11.19;100.00;100693.41;5052399;28;20195;-77
2023/05/10 00:12:26;;;;;;;1.83;1.50;;;;;;;10.94;100.00;100640.09;5052691;28;20685;-77
2023/05/10 00:14:52;;;;;;;1.95;1.48;;;;;;;11.30;100.00;100706.63;5052558;28;20234;-76
2023/05/10 00:17:19;;;;;;;2.10;1.55;;;;;;;11.29;100.00;100703.16;5052193;28;20203;-77
2023/05/10 00:19:46;;;;;;;5.68;2.05;;;;;;;11.23;100.00;100703.03;5051119;28;20199;-76
2023/05/10 00:22:14;;;;;;;1.85;1.60;;;;;;;11.27;100.00;100698.78;5017468;28;20211;-76
2023/05/10 00:24:41;;;;;;;2.22;1.58;;;;;;;11.17;100.00;100708.06;5051782;28;20697;-77
2023/05/10 00:27:07;;;;;;;1.88;1.60;;;;;;;11.04;100.00;100680.09;5051906;28;20231;-75
2023/05/10 00:29:34;;;;;;;1.70;1.42;;;;;;;11.14;100.00;100700.22;5051874;28;20284;-76
2023/05/10 00:32:01;;;;;;;2.58;1.70;;;;;;;11.13;100.00;100695.00;5051892;28;20546;-76
2023/05/10 00:34:28;;;;;;;1.85;1.45;;;;;;;11.10;100.00;100688.00;5051431;28;20204;-76
2023/05/10 00:36:54;;;;;;;2.50;1.60;;;;;;;11.06;100.00;100688.75;5052179;28;20211;-75
2023/05/10 00:39:23;;;;;;;1.70;1.35;;;;;;;11.02;100.00;100684.38;5051706;28;20649;-76
2023/05/10 00:41:49;;;;;;;1.80;1.50;;;;;;;10.96;100.00;100681.63;5052037;28;20261;-76
2023/05/10 00:44:16;;;;;;;2.35;1.52;;;;;;;10.91;100.00;100673.72;5051684;28;20203;-76
2023/05/10 00:46:43;;;;;;;3.22;1.85;;;;;;;10.89;100.00;100682.31;5051537;28;20239;-76
2023/05/10 00:49:10;;;;;;;2.50;1.75;;;;;;;10.74;100.00;100668.97;5051878;28;20272;-76
2023/05/10 00:51:37;;;;;;;2.63;1.70;;;;;;;10.79;100.00;100682.94;5051317;28;20210;-77
2023/05/10 00:54:05;;;;;;;3.10;2.00;;;;;;;10.61;100.00;100661.75;5051190;28;20230;-76
2023/05/10 00:56:33;;;;;;;2.30;1.67;;;;;;;10.73;100.00;100688.00;5051530;28;20212;-76
2023/05/10 00:59:01;;;;;;;3.00;1.70;;;;;;;10.57;100.00;100671.19;5016392;28;20206;-75
2023/05/10 01:01:28;;;;;;;1.67;1.35;;;;;;;10.42;100.00;100682.03;5050255;28;20203;-75
2023/05/10 01:03:55;;;;;;;3.05;1.67;;;;;;;10.28;100.00;100662.69;5035152;28;20217;-76
2023/05/10 01:06:22;;;;;;;2.47;1.92;;;;;;;10.43;100.00;100678.63;5015974;28;20234;-76
2023/05/10 01:08:49;;;;;;;1.80;1.38;;;;;;;10.37;100.00;100675.00;5051215;28;20199;-75
2023/05/10 01:11:16;;;;;;;3.58;1.88;;;;;;;10.20;100.00;100671.97;5036062;28;20523;-76
2023/05/10 01:13:51;;;;;;;2.67;1.55;;;;;;;10.29;100.00;100669.63;5051386;28;20203;-77
2023/05/10 01:16:18;;;;;;;3.05;1.77;;;;;;;10.09;100.00;100655.25;5051580;28;20195;-76
2023/05/10 01:18:45;;;;;;;3.08;1.80;;;;;;;10.26;100.00;100669.56;5051118;28;20199;-76
2023/05/10 01:21:24;;;;;;;2.70;1.67;;;;;;;10.32;100.00;100669.69;5051152;28;20273;-77
2023/05/10 01:24:18;;;;;;;5.57;2.20;;;;;;;10.24;100.00;100665.16;5033442;28;20646;-76
2023/05/10 01:27:06;;;;;;;2.72;1.60;;;;;;;10.23;100.00;100668.59;5034278;28;20222;-76
2023/05/10 01:30:16;;;;;;;3.40;2.00;;;;;;;10.22;100.00;100659.94;5050326;28;20306;-76
2023/05/10 01:32:53;;;;;;;3.00;1.73;;;;;;;10.25;100.00;100657.44;4969316;28;20221;-75
2023/05/10 01:35:27;;;;;;;2.10;1.45;;;;;;;10.39;100.00;100666.44;4969739;28;20325;-75
2023/05/10 01:38:03;;;;;;;3.53;2.38;;;;;;;10.24;100.00;100606.41;4969580;28;20276;-75
2023/05/10 01:40:37;;;;;;;3.72;2.55;;;;;;;10.39;100.00;100650.88;4969452;28;20210;-75
2023/05/10 01:43:07;;;;;;;2.65;1.50;;;;;;;10.38;100.00;100669.84;4970243;28;20314;-75
2023/05/10 01:45:41;;;;;;;3.03;1.95;;;;;;;10.18;100.00;100645.16;4968787;28;20226;-75
2023/05/10 01:48:11;;;;;;;3.30;1.98;;;;;;;10.36;100.00;100662.88;4970082;28;20202;-76
2023/05/10 01:50:42;;;;;;;3.40;2.33;;;;;;;10.07;100.00;100605.09;4969925;28;20217;-76
2023/05/10 01:53:12;;;;;;;2.03;1.42;;;;;;;10.39;100.00;100648.28;4969862;28;20202;-75
2023/05/10 01:55:46;;;;;;;3.35;1.85;;;;;;;10.50;100.00;100660.63;4936588;29;20301;-76
2023/05/10 01:58:16;;;;;;;2.78;1.92;;;;;;;10.56;100.00;100673.75;4950890;29;20277;-75
2023/05/10 02:00:45;;;;;;;3.83;2.13;;;;;;;10.40;100.00;100669.91;4951788;28;20210;-75
2023/05/10 02:03:16;;;;;;;2.80;1.67;;;;;;;10.14;100.00;100639.81;4945645;28;20575;-75
2023/05/10 02:05:45;;;;;;;2.75;1.63;;;;;;;10.24;100.00;100666.03;4969718;28;20225;-76
2023/05/10 02:08:14;;;;;;;2.40;1.47;;;;;;;10.08;100.00;100674.22;4972384;28;20233;-76
2023/05/10 02:10:42;;;;;;;3.40;1.80;;;;;;;10.14;100.00;100664.03;5050912;28;20199;-75
2023/05/10 02:13:10;;;;;;;3.05;1.70;;;;;;;10.22;100.00;100662.53;5050330;28;20211;-76
2023/05/10 02:15:38;;;;;;;3.63;1.90;;;;;;;10.30;100.00;100667.91;5050254;28;20195;-75
2023/05/10 02:18:06;;;;;;;1.90;1.52;;;;;;;9.77;100.00;100627.63;5050592;28;20207;-76
2023/05/10 02:20:36;;;;;;;2.23;1.57;;;;;;;9.79;100.00;100676.03;5049950;28;20722;-75
2023/05/10 02:23:04;;;;;;;4.13;2.00;;;;;;;9.65;100.00;100672.19;5049508;28;20682;-76
2023/05/10 02:25:32;;;;;;;2.33;1.60;;;;;;;9.52;100.00;100669.22;5050146;28;20592;-76
2023/05/10 02:28:02;;;;;;;2.37;1.67;;;;;;;9.60;100.00;100653.03;5050152;28;20235;-76
2023/05/10 02:30:31;;;;;;;2.63;1.60;;;;;;;9.45;100.00;100661.25;5050383;28;20195;-75
2023/05/10 02:32:59;;;;;;;3.27;1.70;;;;;;;9.38;100.00;100633.44;5050384;28;20637;-76
2023/05/10 02:35:27;;;;;;;2.50;1.60;;;;;;;9.49;100.00;100649.28;5048736;28;20632;-76
2023/05/10 02:37:55;;;;;;;2.83;1.70;;;;;;;9.70;100.00;100662.81;5050116;28;20199;-76
2023/05/10 02:40:24;;;;;;;2.40;1.50;;;;;;;9.77;100.00;100663.88;5048835;28;20204;-76
2023/05/10 02:42:56;;;;;;;2.00;1.30;;;;;;;9.86;100.00;100671.88;5049957;28;20195;-76
2023/05/10 02:45:27;;;;;;;1.83;1.30;;;;;;;9.59;100.00;100619.38;5048469;28;20265;-76
2023/05/10 02:47:55;;;;;;;2.93;1.70;;;;;;;9.86;100.00;100666.72;5050148;28;20231;-69
2023/05/10 02:50:23;;;;;;;2.83;1.60;;;;;;;10.26;100.00;100641.06;5050031;28;20749;-70
2023/05/10 02:52:52;;;;;;;3.83;2.50;;;;;;;10.16;100.00;100649.44;5049903;28;20204;-76
2023/05/10 02:55:26;;;;;;;2.83;1.63;;;;;;;10.32;100.00;100672.28;5048359;28;20204;-76
2023/05/10 02:57:58;;;;;;;3.00;1.70;;;;;;;10.22;100.00;100665.13;5049037;28;20274;-76
2023/05/10 03:00:25;;;;;;;3.03;1.70;;;;;;;10.27;100.00;100668.69;5054352;28;20202;-75
2023/05/10 03:02:52;;;;;;;2.83;1.60;;;;;;;10.16;100.00;100643.38;5035178;28;20199;-75
2023/05/10 03:05:19;;;;;;;2.40;1.43;;;;;;;10.50;100.00;100658.91;5054189;28;20211;-71
2023/05/10 03:07:47;;;;;;;3.50;1.80;;;;;;;10.35;100.00;100659.41;5060266;28;20227;-75
2023/05/10 03:10:14;;;;;;;2.75;1.60;;;;;;;10.22;100.00;100656.47;5061468;28;20307;-76
2023/05/10 03:12:53;;;;;;;3.83;2.23;;;;;;;10.28;100.00;100652.31;5060474;28;20207;-75
2023/05/10 03:15:26;;;;;;;1.77;1.30;;;;;;;10.09;100.00;100650.06;5056811;28;20246;-75
2023/05/10 03:17:56;;;;;;;4.07;1.93;;;;;;;10.23;100.00;100650.47;5053868;28;20203;-70
2023/05/10 03:20:26;;;;;;;3.80;2.10;;;;;;;10.14;100.00;100648.50;5049381;28;20212;-69
2023/05/10 03:22:57;;;;;;;3.38;1.90;;;;;;;10.39;100.00;100650.00;5053561;28;20223;-75
2023/05/10 03:25:24;;;;;;;2.97;1.77;;;;;;;10.32;100.00;100648.97;5034659;28;20295;-75
2023/05/10 03:27:53;;;;;;;2.90;1.52;;;;;;;10.36;100.00;100653.41;5053548;28;21450;-75
2023/05/10 03:30:20;;;;;;;3.17;1.70;;;;;;;10.28;100.00;100657.50;5053119;28;20567;-75
2023/05/10 03:32:47;;;;;;;2.92;1.60;;;;;;;10.06;100.00;100659.50;5034428;28;20193;-76
2023/05/10 03:35:14;;;;;;;2.00;1.40;;;;;;;10.16;100.00;100669.28;5053070;28;20199;-74
2023/05/10 03:37:41;;;;;;;3.90;1.87;;;;;;;9.87;100.00;100653.81;5049506;28;20204;-75
2023/05/10 03:40:09;;;;;;;2.20;1.60;;;;;;;9.86;100.00;100669.31;5053055;28;20230;-74
2023/05/10 03:42:36;;;;;;;2.27;1.47;;;;;;;9.97;100.00;100665.28;5049875;28;20191;-75
2023/05/10 03:45:05;;;;;;;2.75;2.13;;;;;;;10.00;100.00;100670.53;5033997;28;20202;-74
2023/05/10 03:47:32;;;;;;;2.03;1.50;;;;;;;10.23;100.00;100673.78;5052638;28;20223;-74
2023/05/10 03:49:58;;;;;;;2.38;1.58;;;;;;;9.99;100.00;100663.59;5052685;28;20207;-76
2023/05/10 03:52:25;;;;;;;1.27;1.17;;;;;;;10.20;100.00;100682.34;5053348;28;20204;-75
2023/05/10 03:54:52;;;;;;;1.88;1.40;;;;;;;10.12;100.00;100676.06;5052862;28;20212;-76
2023/05/10 03:57:19;;;;;;;2.97;2.45;;;;;;;10.30;100.00;100676.56;5052911;28;20203;-75
2023/05/10 03:59:45;;;;;;;3.63;2.28;;;;;;;10.02;100.00;100691.31;5053086;28;20199;-75
2023/05/10 04:02:14;;;;;;;1.90;1.50;;;;;;;10.25;100.00;100685.94;5052439;28;20207;-76
2023/05/10 04:04:40;;;;;;;1.73;1.27;;;;;;;9.93;100.00;100686.75;5052877;28;20199;-76
2023/05/10 04:07:07;;;;;;;2.43;1.63;;;;;;;9.71;100.00;100692.19;5052143;28;20245;-76
2023/05/10 04:09:34;;;;;;;2.70;1.50;;;;;;;9.42;100.00;100676.69;5032934;28;20266;-76
2023/05/10 04:12:02;;;;;;;2.67;1.50;;;;;;;9.57;100.00;100694.38;5052744;28;20204;-75
2023/05/10 04:14:28;;;;;;;2.77;2.10;;;;;;;9.42;100.00;100694.81;5017518;28;20200;-75
2023/05/10 04:16:55;;;;;;;4.07;2.33;;;;;;;9.53;100.00;100692.53;5052736;28;20608;-76
2023/05/10 04:19:24;;;;;;;3.70;1.80;;;;;;;9.56;100.00;100686.59;5052222;28;20277;-75
2023/05/10 04:21:51;;;;;;;4.20;1.90;;;;;;;9.36;100.00;100679.13;5033404;28;20212;-75
2023/05/10 04:24:17;;;;;;;4.53;1.87;;;;;;;9.55;100.00;100675.34;5052252;28;20196;-76
2023/05/10 04:26:45;;;;;;;3.00;1.53;;;;;;;9.57;100.00;100677.97;5052437;28;20235;-76
2023/05/10 04:29:12;;;;;;;4.03;2.30;;;;;;;9.89;100.00;100664.19;5052287;28;20232;-76
2023/05/10 04:31:39;;;;;;;4.07;1.87;;;;;;;10.18;100.00;100660.69;5052389;28;20667;-76
2023/05/10 04:34:05;;;;;;;4.00;1.90;;;;;;;10.19;100.00;100641.72;5033362;28;20199;-76
2023/05/10 04:36:35;;;;;;;4.13;2.37;;;;;;;10.47;100.00;100678.69;5052462;28;20227;-77
2023/05/10 04:39:02;;;;;;;2.95;1.60;;;;;;;9.98;100.00;100667.06;5051361;28;20214;-77
2023/05/10 04:41:29;;;;;;;4.37;2.17;;;;;;;10.03;100.00;100680.09;5051803;28;20549;-76
2023/05/10 04:43:56;;;;;;;3.05;2.00;;;;;;;10.52;100.00;100692.66;5051757;28;20211;-77
2023/05/10 04:46:23;;;;;;;2.85;1.60;;;;;;;10.59;100.00;100695.44;5051982;28;20211;-77
2023/05/10 04:48:50;;;;;;;3.15;1.70;;;;;;;11.25;100.00;100706.50;5051954;28;20203;-70
2023/05/10 04:51:17;;;;;;;2.58;1.70;;;;;;;11.66;100.00;100693.53;5051940;28;20195;-77
2023/05/10 04:53:45;;;;;;;2.92;1.98;;;;;;;12.01;100.00;100694.25;5050477;28;20691;-76
2023/05/10 04:56:11;;;;;;;2.40;1.45;;;;;;;12.19;100.00;100734.47;5051580;28;20290;-76
2023/05/10 04:58:38;;;;;;;2.28;1.48;;;;;;;12.01;100.00;100733.25;5055809;28;20272;-76
2023/05/10 05:01:10;;;;;;;1.67;1.10;;;;;;;12.09;100.00;100740.34;5044666;28;20207;-76
2023/05/10 05:03:37;;;;;;;2.08;1.48;;;;;;;11.84;100.00;100741.56;5042280;28;20203;-76
2023/05/10 05:06:04;;;;;;;3.63;1.77;;;;;;;11.80;100.00;100724.19;5050822;28;20212;-76
2023/05/10 05:08:31;;;;;;;2.42;1.75;;;;;;;11.72;100.00;100741.34;5051264;28;20227;-76
2023/05/10 05:11:00;;;;;;;2.58;1.65;;;;;;;11.86;100.00;100739.00;5051202;28;20219;-75
2023/05/10 05:13:26;;;;;;;2.67;1.63;;;;;;;12.07;100.00;100738.56;5050579;28;20238;-75
2023/05/10 05:15:54;;;;;;;2.17;1.42;;;;;;;12.02;100.00;100735.00;5051284;28;20575;-77
2023/05/10 05:18:21;;;;;;;2.13;1.50;;;;;;;12.09;100.00;100742.97;5050943;28;20215;-75
2023/05/10 05:20:48;;;;;;;2.42;1.48;;;;;;;12.06;100.00;100742.88;5020570;28;20199;-70
2023/05/10 05:23:14;;;;;;;2.45;1.55;;;;;;;11.72;100.00;100730.94;5051433;28;20200;-74
2023/05/10 05:25:41;;;;;;;1.77;1.50;;;;;;;11.99;100.00;100729.72;5051447;28;20280;-75
2023/05/10 05:28:09;;;;;;;1.35;1.20;;;;;;;12.15;100.00;100724.00;5050928;28;20243;-75
2023/05/10 05:30:36;;;;;;;2.58;1.65;;;;;;;12.13;100.00;100697.09;5051593;28;20206;-75
2023/05/10 05:33:03;;;;;;;2.28;1.42;;;;;;;11.60;100.00;100729.75;5051106;28;20641;-73
2023/05/10 05:35:30;;;;;;;2.28;1.33;;;;;;;11.34;100.00;100727.47;5051498;28;20196;-74
2023/05/10 05:37:56;;;;;;;2.85;1.70;;;;;;;11.75;100.00;100719.72;5050904;28;20214;-74
2023/05/10 05:40:23;;;;;;;1.45;1.27;;;;;;;11.73;100.00;100716.22;5050897;28;20257;-76
2023/05/10 05:42:50;;;;;;;2.55;1.42;;;;;;;12.14;100.00;100720.50;5016016;28;20204;-74
2023/05/10 05:45:18;;;;;;;2.80;1.95;;;;;;;12.39;100.00;100701.91;5050512;28;20203;-75
2023/05/10 05:47:45;;;;;;;2.72;1.60;;;;;;;12.45;100.00;100648.25;5050723;28;20612;-75
2023/05/10 05:50:12;;;;;;;2.33;1.42;;;;;;;13.11;100.00;100737.81;5050441;28;20697;-75
2023/05/10 05:52:39;;;;;;;3.17;2.00;;;;;;;13.33;100.00;100729.47;5015643;28;20248;-76
2023/05/10 05:55:06;;;;;;;5.28;2.13;;;;;;;13.28;100.00;100731.13;5015310;28;20579;-76
2023/05/10 05:57:33;;;;;;;3.38;1.77;;;;;;;13.35;100.00;100730.38;5050341;28;20256;-75
2023/05/10 05:59:59;;;;;;;2.35;1.48;;;;;;;13.29;100.00;100742.44;5050284;28;20599;-75
2023/05/10 06:02:27;;;;;;;2.28;1.40;;;;;;;13.13;100.00;100727.41;5064356;28;20206;-74
2023/05/10 06:04:54;;;;;;;3.45;1.75;;;;;;;13.01;100.00;100730.69;5050379;28;20268;-75
2023/05/10 06:07:21;;;;;;;2.45;1.58;;;;;;;12.87;100.00;100727.00;5031642;28;20241;-75
2023/05/10 06:09:48;;;;;;;2.28;1.50;;;;;;;12.62;100.00;100710.13;5050772;28;20207;-75
2023/05/10 06:12:14;;;;;;;2.88;1.50;;;;;;;12.87;100.00;100742.63;5050342;28;20203;-74
2023/05/10 06:14:41;;;;;;;3.83;2.05;;;;;;;12.77;100.00;100730.31;5050459;28;20207;-75
2023/05/10 06:17:08;;;;;;;4.90;2.28;;;;;;;12.74;100.00;100732.84;5050244;28;20207;-74
2023/05/10 06:19:36;;;;;;;1.83;1.45;;;;;;;12.70;100.00;100737.13;5050159;28;20585;-76
2023/05/10 06:22:03;;;;;;;2.28;1.40;;;;;;;12.46;100.00;100734.09;5050282;28;20302;-75
2023/05/10 06:24:30;;;;;;;1.92;1.30;;;;;;;12.24;100.00;100693.81;5050167;28;20207;-75
2023/05/10 06:26:59;;;;;;;2.00;1.42;;;;;;;12.79;100.00;100734.69;5050312;28;20203;-76
2023/05/10 06:29:26;;;;;;;3.25;1.70;;;;;;;12.89;100.00;100736.56;5067877;28;20288;-75
2023/05/10 06:31:53;;;;;;;1.70;1.35;;;;;;;13.14;100.00;100744.78;5052172;28;20300;-74
2023/05/10 06:34:20;;;;;;;2.58;1.80;;;;;;;13.39;100.00;100742.59;5045847;28;20289;-74
2023/05/10 06:36:48;;;;;;;6.20;2.55;;;;;;;13.77;100.00;100731.78;5065543;28;20204;-69
2023/05/10 06:39:15;;;;;;;1.70;1.38;;;;;;;13.69;100.00;100730.81;5055705;28;20644;-69
2023/05/10 06:41:42;;;;;;;3.10;1.65;;;;;;;13.88;100.00;100748.41;5059980;28;20217;-73
2023/05/10 06:44:09;;;;;;;2.58;1.60;;;;;;;13.93;100.00;100753.69;5074059;28;20234;-74
2023/05/10 06:46:36;;;;;;;3.80;1.90;;;;;;;13.95;100.00;100758.06;5059683;28;20231;-75
2023/05/10 06:49:03;;;;;;;1.20;1.10;;;;;;;14.27;100.00;100735.84;5066656;28;20301;-74
2023/05/10 06:51:29;;;;;;;2.20;1.50;;;;;;;14.72;100.00;100747.63;5054194;28;20207;-76
2023/05/10 06:53:58;;;;;;;2.00;1.33;;;;;;;14.68;100.00;100764.13;5059443;28;20648;-76
2023/05/10 06:56:24;;;;;;;1.33;1.20;;;;;;;14.53;100.00;100723.09;5074562;28;20260;-76
2023/05/10 06:58:51;;;;;;;2.05;1.38;;;;;;;14.25;100.00;100762.78;5076275;28;20199;-75
2023/05/10 07:01:18;;;;;;;2.05;1.85;;;;;;;14.32;100.00;100751.53;5076259;28;20198;-77
2023/05/10 07:03:45;;;;;;;1.65;1.40;;;;;;;14.62;100.00;100744.06;5076781;28;20202;-78
2023/05/10 07:06:11;;;;;;;1.33;1.17;;;;;;;14.67;100.00;100738.88;5076734;28;20195;-77
2023/05/10 07:08:38;;;;;;;2.08;1.30;;;;;;;14.74;100.00;100738.06;5074082;28;20222;-77
2023/05/10 07:11:08;;;;;;;1.25;1.15;;;;;;;15.03;100.00;100751.34;5073894;28;20199;-76
2023/05/10 07:13:36;;;;;;;1.38;1.20;;;;;;;15.08;100.00;100755.75;5073800;28;20219;-77
2023/05/10 07:16:02;;;;;;;2.33;1.60;;;;;;;14.56;100.00;100730.06;5073549;28;20234;-77
2023/05/10 07:18:29;;;;;;;3.08;1.65;;;;;;;14.69;100.00;100750.22;5073915;28;20202;-77
2023/05/10 07:20:57;;;;;;;1.92;1.33;;;;;;;14.88;100.00;100747.75;5055158;28;20206;-78
2023/05/10 07:23:24;;;;;;;2.05;1.45;;;;;;;15.11;95.17;100754.91;5073770;28;20203;-78
2023/05/10 07:25:52;;;;;;;2.28;1.38;;;;;;;14.68;94.98;100722.34;5038513;28;20543;-78
2023/05/10 07:28:20;;;;;;;1.08;0.98;;;;;;;15.12;85.03;100757.53;5073600;28;20291;-78
2023/05/10 07:30:47;;;;;;;2.58;1.73;;;;;;;15.04;87.94;100764.44;5073486;28;20210;-78
2023/05/10 07:33:15;;;;;;;1.25;1.15;;;;;;;15.11;83.00;100724.44;5073812;28;20232;-78
2023/05/10 07:35:42;;;;;;;4.18;1.95;;;;;;;15.34;69.28;100753.31;5073609;28;20665;-78
2023/05/10 07:38:10;;;;;;;4.32;2.05;;;;;;;15.45;67.30;100756.00;5073447;28;20207;-77
2023/05/10 07:40:38;;;;;;;1.75;1.25;;;;;;;15.69;67.86;100730.03;5073513;28;20612;-77
2023/05/10 07:43:05;;;;;;;2.53;1.50;;;;;;;15.82;68.66;100750.13;5072284;28;20234;-77
2023/05/10 07:45:33;;;;;;;1.13;1.00;;;;;;;15.98;68.29;100756.31;5072857;28;20293;-77
2023/05/10 07:48:00;;;;;;;3.08;1.70;;;;;;;16.14;66.89;100751.13;5072938;28;20575;-76
2023/05/10 07:50:27;;;;;;;3.15;1.70;;;;;;;16.16;64.71;100757.22;5073134;28;20674;-77
2023/05/10 07:52:54;;;;;;;1.88;1.40;;;;;;;16.05;63.50;100765.94;5073157;28;20195;-76
2023/05/10 07:55:22;;;;;;;1.33;1.20;;;;;;;15.92;63.50;100758.88;5073233;28;20700;-76
2023/05/10 07:57:48;;;;;;;1.65;1.30;;;;;;;16.24;64.95;100755.50;5038038;28;20205;-77
2023/05/10 08:00:19;;;;;;;1.25;1.05;;;;;;;16.24;64.04;100746.78;5073050;28;20692;-76
2023/05/10 08:02:48;;;;;;;1.27;1.17;;;;;;;16.18;61.53;100755.50;5021687;28;20226;-76
2023/05/10 08:05:15;;;;;;;1.67;1.30;;;;;;;15.89;62.60;100720.53;5072871;28;20195;-77
2023/05/10 08:07:42;;;;;;;1.50;1.40;;;;;;;15.99;62.86;100745.84;5072783;28;20713;-77
2023/05/10 08:10:10;;;;;;;1.65;1.35;;;;;;;16.27;63.32;100752.91;5072716;28;20206;-76
2023/05/10 08:12:37;;;;;;;1.45;1.35;;;;;;;16.12;62.69;100752.00;5072830;28;20195;-77
2023/05/10 08:15:05;;;;;;;2.45;1.48;;;;;;;16.26;64.13;100755.53;5072744;28;20199;-76
2023/05/10 08:17:32;;;;;;;1.83;1.30;;;;;;;16.66;62.76;100752.13;5072583;28;20633;-76
2023/05/10 08:20:00;;;;;;;5.05;2.10;;;;;;;16.69;62.30;100748.66;5072483;28;20217;-76
2023/05/10 08:22:27;;;;;;;3.88;1.73;;;;;;;16.54;61.49;100752.09;5072233;28;20263;-76
2023/05/10 08:24:54;;;;;;;4.13;1.88;;;;;;;16.73;60.31;100739.94;5072113;28;20199;-76
2023/05/10 08:27:20;;;;;;;1.30;1.20;;;;;;;16.44;58.66;100744.22;5072428;28;20260;-76
2023/05/10 08:29:47;;;;;;;2.55;1.33;;;;;;;16.58;59.61;100732.06;5072412;28;20226;-76
2023/05/10 08:32:14;;;;;;;4.35;1.92;;;;;;;16.28;59.59;100725.88;5072129;28;20210;-76
2023/05/10 08:34:41;;;;;;;4.55;1.85;;;;;;;16.32;61.00;100724.13;5072176;28;20198;-76
2023/05/10 08:37:10;;;;;;;3.40;1.70;;;;;;;16.83;60.78;100736.44;5036668;28;20198;-76
2023/05/10 08:39:37;;;;;;;3.13;1.52;;;;;;;16.52;61.58;100721.53;5071846;28;20199;-76
2023/05/10 08:42:06;;;;;;;3.03;1.55;;;;;;;16.96;57.81;100735.56;5072039;28;20195;-76
2023/05/10 08:44:34;;;;;;;1.83;1.20;;;;;;;17.11;59.91;100735.56;5071930;28;20250;-76
2023/05/10 08:47:05;;;;;;;3.55;1.75;;;;;;;17.14;60.37;100735.53;5053612;28;20304;-76
2023/05/10 08:49:33;;;;;;;4.93;2.00;;;;;;;17.28;60.77;100740.75;5069859;28;20626;-76
2023/05/10 08:52:03;;;;;;;2.67;1.40;;;;;;;17.13;57.83;100736.41;5036348;28;20222;-76
2023/05/10 08:54:32;;;;;;;3.28;1.67;;;;;;;17.54;56.34;100730.22;5071401;28;20286;-76
2023/05/10 08:56:59;;;;;;;1.77;1.40;;;;;;;17.98;53.78;100732.72;5071784;28;20257;-77
2023/05/10 08:59:26;;;;;;;1.85;1.27;;;;;;;17.85;53.86;100718.75;5071784;28;20268;-76
2023/05/10 09:01:56;;;;;;;2.97;1.58;;;;;;;18.14;54.72;100732.63;5071674;28;20203;-76
2023/05/10 09:04:24;;;;;;;2.58;1.48;;;;;;;18.07;53.64;100724.78;5071491;28;20195;-76
2023/05/10 09:06:50;;;;;;;2.30;1.58;;;;;;;18.47;52.40;100728.94;5071410;28;20260;-76
2023/05/10 09:09:18;;;;;;;2.40;1.50;;;;;;;18.11;52.63;100729.16;5071428;28;20234;-76
2023/05/10 09:11:46;;;;;;;1.77;1.33;;;;;;;18.14;52.47;100739.63;5071602;28;20195;-76
2023/05/10 09:14:14;;;;;;;2.90;1.50;;;;;;;17.90;52.82;100724.88;5071531;28;20210;-76
2023/05/10 09:16:41;;;;;;;1.23;1.02;;;;;;;18.21;51.39;100736.97;5071434;28;20658;-76
2023/05/10 09:19:08;;;;;;;2.42;1.55;;;;;;;18.18;49.76;100731.72;5071220;28;20289;-75
2023/05/10 09:21:38;;;;;;;2.38;1.33;;;;;;;18.20;50.18;100734.31;5071462;28;20276;-75
2023/05/10 09:24:05;;;;;;;3.03;1.55;;;;;;;18.03;51.84;100713.44;5068121;28;20289;-71
2023/05/10 09:26:33;;;;;;;3.30;1.70;;;;;;;18.35;50.45;100723.75;5053175;28;20230;-70
2023/05/10 09:29:02;;;;;;;2.92;1.50;;;;;;;18.38;51.06;100718.47;5071173;28;20238;-70
2023/05/10 09:31:47;;;;;;;1.05;0.90;;;;;;;18.43;49.60;100721.06;5063694;28;20194;-71
2023/05/10 09:34:19;;;;;;;1.73;1.20;;;;;;;18.09;48.92;100709.88;5048405;28;20415;-71
2023/05/10 09:40:36;;;;;;;1.50;1.00;;;;;;;18.69;48.75;100703.41;5053183;27;2048704;-76
2023/05/10 09:43:06;;;;;;;5.60;1.92;;;;;;;18.40;48.33;100711.47;5104976;28;20194;-75
2023/05/10 09:45:35;;;;;;;3.42;1.45;;;;;;;18.59;46.98;100714.84;5108734;28;20210;-75
2023/05/10 09:48:03;;;;;;;4.85;1.70;;;;;;;18.35;47.32;100689.63;5091001;28;20305;-75
2023/05/10 09:50:30;;;;;;;5.72;1.83;;;;;;;18.35;45.68;100692.22;5102333;28;20204;-76
2023/05/10 09:52:59;;;;;;;3.78;1.35;;;;;;;18.30;45.16;100694.00;5088028;28;20206;-75
2023/05/10 09:55:38;;;;;;;4.00;1.42;;;;;;;18.23;46.17;100687.94;5088174;28;20263;-76
2023/05/10 09:58:10;;;;;;;6.18;1.95;;;;;;;18.18;47.05;100692.34;5096973;28;20189;-76
2023/05/10 10:00:38;;;;;;;4.93;1.65;;;;;;;18.33;46.96;100692.22;5094420;28;20198;-76
2023/05/10 10:03:05;;;;;;;5.22;1.83;;;;;;;17.92;46.44;100683.75;5100594;28;20209;-77
2023/05/10 10:05:33;;;;;;;6.57;2.08;;;;;;;17.83;46.78;100673.31;5101732;28;20205;-75
2023/05/10 10:08:01;;;;;;;3.78;1.38;;;;;;;18.09;46.58;100679.28;5107845;28;20197;-76
2023/05/10 10:10:29;;;;;;;4.03;1.55;;;;;;;18.37;46.77;100679.97;5095216;28;20202;-75
2023/05/10 10:12:56;;;;;;;4.90;1.80;;;;;;;18.74;44.79;100693.72;5106724;28;20198;-74
2023/05/10 10:15:25;;;;;;;6.53;2.00;;;;;;;18.34;45.29;100665.09;5107798;28;20258;-76
2023/05/10 10:17:53;;;;;;;5.85;1.80;;;;;;;18.18;45.49;100616.22;5107941;28;20201;-75
2023/05/10 10:20:24;;;;;;;6.72;1.98;;;;;;;18.69;44.45;100682.41;5107707;28;20643;-75
2023/05/10 10:22:51;;;;;;;3.78;1.45;;;;;;;18.25;45.25;100604.81;5107787;28;20200;-75
2023/05/10 10:25:19;;;;;;;5.15;1.83;;;;;;;18.94;45.32;100677.78;5107693;28;20204;-76
2023/05/10 10:28:08;;;;;;;6.47;1.90;;;;;;;18.89;44.30;100675.19;5107634;28;20624;-75
2023/05/10 10:30:42;;;;;;;3.08;1.30;;;;;;;18.76;45.15;100673.56;5071901;28;20205;-75
2023/05/10 10:33:29;;;;;;;5.53;1.75;;;;;;;18.92;45.67;100664.66;5107634;28;20244;-74
2023/05/10 10:35:58;;;;;;;4.88;1.50;;;;;;;18.83;44.79;100669.13;5107850;28;20220;-74
2023/05/10 10:38:25;;;;;;;6.35;1.90;;;;;;;18.62;44.17;100659.69;5106684;28;20682;-74
2023/05/10 10:41:03;;;;;;;4.53;1.58;;;;;;;18.58;44.83;100648.34;5087203;28;20205;-74
2023/05/10 10:43:30;;;;;;;4.60;1.60;;;;;;;18.34;46.78;100659.84;5087063;28;20287;-74
2023/05/10 10:46:14;;;;;;;4.60;1.58;;;;;;;18.72;46.85;100661.34;5087327;28;20245;-75
2023/05/10 10:48:42;;;;;;;4.38;1.45;;;;;;;18.41;45.40;100652.78;5087154;28;20226;-75
2023/05/10 10:51:08;;;;;;;5.82;1.88;;;;;;;18.98;45.29;100654.06;5041888;28;20245;-74
2023/05/10 10:53:35;;;;;;;4.38;1.50;;;;;;;19.08;44.00;100661.00;5073439;28;20260;-75
2023/05/10 10:56:09;;;;;;;3.45;1.38;;;;;;;19.66;43.59;100655.06;5073634;28;20282;-75
2023/05/10 10:58:36;;;;;;;3.60;1.52;;;;;;;19.89;43.35;100662.66;5073638;28;20202;-75
2023/05/10 11:01:17;;;;;;;5.07;1.67;;;;;;;19.73;45.60;100646.22;5073402;28;20665;-75
2023/05/10 11:04:19;;;;;;;5.05;1.73;;;;;;;19.38;42.25;100651.00;5073279;28;20207;-75
2023/05/10 11:06:46;;;;;;;4.57;1.58;;;;;;;19.53;44.08;100632.44;5073389;28;20233;-76
2023/05/10 11:09:13;;;;;;;6.55;1.88;;;;;;;19.36;46.28;100634.38;5073310;28;20229;-75
2023/05/10 11:11:50;;;;;;;5.07;1.77;;;;;;;18.86;47.45;100664.72;5073278;28;20198;-75
2023/05/10 11:14:21;;;;;;;4.85;1.63;;;;;;;19.10;46.34;100622.41;5073249;28;20203;-75
2023/05/10 11:16:49;;;;;;;5.57;1.73;;;;;;;19.35;46.95;100653.69;5073046;28;20246;-76
2023/05/10 11:19:17;;;;;;;5.57;2.05;;;;;;;19.36;45.91;100642.28;5072961;28;20206;-76
2023/05/10 11:21:48;;;;;;;4.53;1.55;;;;;;;18.79;46.66;100639.38;5073255;28;20290;-75
2023/05/10 11:24:17;;;;;;;4.90;1.60;;;;;;;18.81;47.17;100634.97;5073008;28;20206;-75
2023/05/10 11:26:44;;;;;;;4.05;1.55;;;;;;;19.14;47.77;100642.53;5072948;28;20616;-75
2023/05/10 11:29:13;;;;;;;6.20;2.13;;;;;;;19.33;48.17;100640.56;5072947;28;20238;-76
2023/05/10 11:31:44;;;;;;;5.15;1.70;;;;;;;18.96;47.38;100634.81;5021534;28;20207;-76